sensor_id;sensor_type;location;lat;lon;timestamp;P1;durP1;ratioP1;P2;durP2;ratioP2
9661;SDS011;24982;52.344;12.990;2023-04-01T00:02:43;2.38;;;1.50;;
9661;SDS011;24982;52.344;12.990;2023-04-01T00:05:45;1.80;;;1.45;;
9661;SDS011;24982;52.344;12.990;2023-04-01T00:08:49;2.95;;;1.70;;
9661;SDS011;24982;52.344;12.990;2023-04-01T00:11:52;4.10;;;1.70;;
9661;SDS011;24982;52.344;12.990;2023-04-01T00:14:54;1.70;;;1.60;;
9661;SDS011;24982;52.344;12.990;2023-04-01T00:17:56;2.97;;;1.50;;
9661;SDS011;24982;52.344;12.990;2023-04-01T00:20:59;3.58;;;1.60;;
9661;SDS011;24982;52.344;12.990;2023-04-01T00:24:02;3.67;;;1.77;;
9661;SDS011;24982;52.344;12.990;2023-04-01T00:27:04;4.25;;;1.70;;
9661;SDS011;24982;52.344;12.990;2023-04-01T00:30:08;3.47;;;1.77;;
9661;SDS011;24982;52.344;12.990;2023-04-01T00:33:11;2.30;;;1.50;;
9661;SDS011;24982;52.344;12.990;2023-04-01T00:36:14;1.85;;;1.70;;
9661;SDS011;24982;52.344;12.990;2023-04-01T00:39:19;2.25;;;1.58;;
9661;SDS011;24982;52.344;12.990;2023-04-01T00:42:21;2.40;;;1.70;;
9661;SDS011;24982;52.344;12.990;2023-04-01T00:45:25;2.85;;;1.73;;
9661;SDS011;24982;52.344;12.990;2023-04-01T00:48:31;1.80;;;1.70;;
9661;SDS011;24982;52.344;12.990;2023-04-01T00:51:37;3.30;;;1.60;;
9661;SDS011;24982;52.344;12.990;2023-04-01T00:54:43;2.65;;;1.52;;
9661;SDS011;24982;52.344;12.990;2023-04-01T00:57:47;1.73;;;1.60;;
9661;SDS011;24982;52.344;12.990;2023-04-01T01:00:51;2.35;;;1.80;;
9661;SDS011;24982;52.344;12.990;2023-04-01T01:03:55;4.43;;;1.88;;
9661;SDS011;24982;52.344;12.990;2023-04-01T01:07:00;2.88;;;1.73;;
9661;SDS011;24982;52.344;12.990;2023-04-01T01:10:14;2.53;;;1.70;;
9661;SDS011;24982;52.344;12.990;2023-04-01T01:13:21;3.72;;;1.80;;
9661;SDS011;24982;52.344;12.990;2023-04-01T01:16:28;5.55;;;1.60;;
9661;SDS011;24982;52.344;12.990;2023-04-01T01:19:44;3.03;;;1.70;;
9661;SDS011;24982;52.344;12.990;2023-04-01T01:23:23;2.90;;;1.77;;
9661;SDS011;24982;52.344;12.990;2023-04-01T01:27:04;4.65;;;1.90;;
9661;SDS011;24982;52.344;12.990;2023-04-01T01:30:14;4.72;;;2.10;;
9661;SDS011;24982;52.344;12.990;2023-04-01T01:37:07;3.90;;;2.00;;
9661;SDS011;24982;52.344;12.990;2023-04-01T01:40:11;3.83;;;1.88;;
9661;SDS011;24982;52.344;12.990;2023-04-01T01:43:17;3.42;;;1.88;;
9661;SDS011;24982;52.344;12.990;2023-04-01T01:46:22;2.50;;;1.65;;
9661;SDS011;24982;52.344;12.990;2023-04-01T01:49:26;4.45;;;1.70;;
9661;SDS011;24982;52.344;12.990;2023-04-01T01:52:31;3.92;;;1.65;;
9661;SDS011;24982;52.344;12.990;2023-04-01T01:55:34;3.00;;;2.33;;
9661;SDS011;24982;52.344;12.990;2023-04-01T01:58:38;5.38;;;1.80;;
9661;SDS011;24982;52.344;12.990;2023-04-01T02:01:48;2.83;;;1.67;;
9661;SDS011;24982;52.344;12.990;2023-04-01T02:04:54;2.03;;;1.58;;
9661;SDS011;24982;52.344;12.990;2023-04-01T02:08:00;5.20;;;1.75;;
9661;SDS011;24982;52.344;12.990;2023-04-01T02:11:05;4.88;;;1.83;;
9661;SDS011;24982;52.344;12.990;2023-04-01T02:14:13;4.05;;;1.80;;
9661;SDS011;24982;52.344;12.990;2023-04-01T02:17:18;4.00;;;1.80;;
9661;SDS011;24982;52.344;12.990;2023-04-01T02:20:22;2.22;;;1.70;;
9661;SDS011;24982;52.344;12.990;2023-04-01T02:23:26;5.70;;;2.03;;
9661;SDS011;24982;52.344;12.990;2023-04-01T02:26:30;3.15;;;1.77;;
9661;SDS011;24982;52.344;12.990;2023-04-01T02:29:32;4.78;;;2.00;;
9661;SDS011;24982;52.344;12.990;2023-04-01T02:32:34;3.55;;;1.75;;
9661;SDS011;24982;52.344;12.990;2023-04-01T02:35:38;3.13;;;1.80;;
9661;SDS011;24982;52.344;12.990;2023-04-01T02:38:43;2.53;;;1.65;;
9661;SDS011;24982;52.344;12.990;2023-04-01T02:41:46;5.88;;;1.90;;
9661;SDS011;24982;52.344;12.990;2023-04-01T02:44:48;3.28;;;1.83;;
9661;SDS011;24982;52.344;12.990;2023-04-01T02:47:50;5.95;;;2.35;;
9661;SDS011;24982;52.344;12.990;2023-04-01T02:50:52;2.85;;;1.50;;
9661;SDS011;24982;52.344;12.990;2023-04-01T02:53:55;2.40;;;1.75;;
9661;SDS011;24982;52.344;12.990;2023-04-01T02:56:57;3.03;;;1.85;;
9661;SDS011;24982;52.344;12.990;2023-04-01T02:59:59;2.15;;;1.80;;
9661;SDS011;24982;52.344;12.990;2023-04-01T03:03:01;2.63;;;1.50;;
9661;SDS011;24982;52.344;12.990;2023-04-01T03:06:04;3.22;;;1.67;;
9661;SDS011;24982;52.344;12.990;2023-04-01T03:09:08;2.20;;;1.85;;
9661;SDS011;24982;52.344;12.990;2023-04-01T03:12:10;2.60;;;1.45;;
9661;SDS011;24982;52.344;12.990;2023-04-01T03:15:21;1.95;;;1.52;;
9661;SDS011;24982;52.344;12.990;2023-04-01T03:18:23;2.28;;;1.60;;
9661;SDS011;24982;52.344;12.990;2023-04-01T03:21:26;3.92;;;1.95;;
9661;SDS011;24982;52.344;12.990;2023-04-01T03:24:29;4.50;;;2.38;;
9661;SDS011;24982;52.344;12.990;2023-04-01T03:27:31;3.17;;;1.95;;
9661;SDS011;24982;52.344;12.990;2023-04-01T03:30:33;4.75;;;2.03;;
9661;SDS011;24982;52.344;12.990;2023-04-01T03:33:35;4.00;;;2.15;;
9661;SDS011;24982;52.344;12.990;2023-04-01T03:36:37;4.30;;;2.15;;
9661;SDS011;24982;52.344;12.990;2023-04-01T03:39:41;7.15;;;2.45;;
9661;SDS011;24982;52.344;12.990;2023-04-01T03:42:43;6.38;;;2.15;;
9661;SDS011;24982;52.344;12.990;2023-04-01T03:45:45;5.82;;;2.25;;
9661;SDS011;24982;52.344;12.990;2023-04-01T03:48:48;7.07;;;2.70;;
9661;SDS011;24982;52.344;12.990;2023-04-01T03:51:50;5.28;;;1.80;;
9661;SDS011;24982;52.344;12.990;2023-04-01T03:54:53;8.40;;;2.40;;
9661;SDS011;24982;52.344;12.990;2023-04-01T03:57:56;8.43;;;2.30;;
9661;SDS011;24982;52.344;12.990;2023-04-01T04:00:58;6.32;;;2.13;;
9661;SDS011;24982;52.344;12.990;2023-04-01T04:04:00;7.15;;;2.42;;
9661;SDS011;24982;52.344;12.990;2023-04-01T04:07:02;6.60;;;2.35;;
9661;SDS011;24982;52.344;12.990;2023-04-01T04:10:17;6.80;;;2.60;;
9661;SDS011;24982;52.344;12.990;2023-04-01T04:13:20;4.13;;;1.98;;
9661;SDS011;24982;52.344;12.990;2023-04-01T04:16:29;5.60;;;2.17;;
9661;SDS011;24982;52.344;12.990;2023-04-01T04:19:34;5.57;;;2.30;;
9661;SDS011;24982;52.344;12.990;2023-04-01T04:22:36;7.78;;;2.55;;
9661;SDS011;24982;52.344;12.990;2023-04-01T04:25:42;7.25;;;2.33;;
9661;SDS011;24982;52.344;12.990;2023-04-01T04:28:55;4.10;;;1.95;;
9661;SDS011;24982;52.344;12.990;2023-04-01T04:31:57;4.05;;;2.20;;
9661;SDS011;24982;52.344;12.990;2023-04-01T04:34:59;4.07;;;2.10;;
9661;SDS011;24982;52.344;12.990;2023-04-01T04:38:01;8.52;;;2.70;;
9661;SDS011;24982;52.344;12.990;2023-04-01T04:41:04;5.72;;;2.30;;
9661;SDS011;24982;52.344;12.990;2023-04-01T04:44:10;7.30;;;2.03;;
9661;SDS011;24982;52.344;12.990;2023-04-01T04:47:13;7.78;;;2.45;;
9661;SDS011;24982;52.344;12.990;2023-04-01T04:50:15;4.35;;;2.20;;
9661;SDS011;24982;52.344;12.990;2023-04-01T04:53:18;5.22;;;2.33;;
9661;SDS011;24982;52.344;12.990;2023-04-01T04:56:22;4.82;;;2.30;;
9661;SDS011;24982;52.344;12.990;2023-04-01T04:59:36;3.97;;;2.42;;
9661;SDS011;24982;52.344;12.990;2023-04-01T05:02:46;3.58;;;2.25;;
9661;SDS011;24982;52.344;12.990;2023-04-01T05:05:48;5.72;;;2.30;;
9661;SDS011;24982;52.344;12.990;2023-04-01T05:08:51;5.10;;;2.28;;
9661;SDS011;24982;52.344;12.990;2023-04-01T05:11:55;5.38;;;2.13;;
9661;SDS011;24982;52.344;12.990;2023-04-01T05:14:58;5.57;;;2.13;;
9661;SDS011;24982;52.344;12.990;2023-04-01T05:18:01;5.07;;;2.13;;
9661;SDS011;24982;52.344;12.990;2023-04-01T05:21:03;3.83;;;2.13;;
9661;SDS011;24982;52.344;12.990;2023-04-01T05:24:07;5.75;;;2.55;;
9661;SDS011;24982;52.344;12.990;2023-04-01T05:27:12;5.00;;;2.42;;
9661;SDS011;24982;52.344;12.990;2023-04-01T05:30:15;6.60;;;2.72;;
9661;SDS011;24982;52.344;12.990;2023-04-01T05:33:33;5.97;;;2.20;;
9661;SDS011;24982;52.344;12.990;2023-04-01T05:36:36;3.38;;;2.20;;
9661;SDS011;24982;52.344;12.990;2023-04-01T05:39:38;5.10;;;2.20;;
9661;SDS011;24982;52.344;12.990;2023-04-01T05:42:43;3.90;;;2.20;;
9661;SDS011;24982;52.344;12.990;2023-04-01T05:45:45;5.63;;;2.20;;
9661;SDS011;24982;52.344;12.990;2023-04-01T05:48:47;7.05;;;2.20;;
9661;SDS011;24982;52.344;12.990;2023-04-01T05:51:52;3.30;;;1.60;;
9661;SDS011;24982;52.344;12.990;2023-04-01T05:54:54;8.90;;;2.20;;
9661;SDS011;24982;52.344;12.990;2023-04-01T05:57:57;4.63;;;1.83;;
9661;SDS011;24982;52.344;12.990;2023-04-01T06:01:02;8.20;;;2.70;;
9661;SDS011;24982;52.344;12.990;2023-04-01T06:04:05;7.93;;;2.50;;
9661;SDS011;24982;52.344;12.990;2023-04-01T06:07:13;7.75;;;2.20;;
9661;SDS011;24982;52.344;12.990;2023-04-01T06:10:17;5.93;;;2.03;;
9661;SDS011;24982;52.344;12.990;2023-04-01T06:13:26;6.32;;;2.05;;
9661;SDS011;24982;52.344;12.990;2023-04-01T06:16:43;4.93;;;2.05;;
9661;SDS011;24982;52.344;12.990;2023-04-01T06:19:55;3.63;;;2.58;;
9661;SDS011;24982;52.344;12.990;2023-04-01T06:23:09;5.60;;;2.40;;
9661;SDS011;24982;52.344;12.990;2023-04-01T06:26:23;3.88;;;2.10;;
9661;SDS011;24982;52.344;12.990;2023-04-01T06:29:44;3.40;;;1.90;;
9661;SDS011;24982;52.344;12.990;2023-04-01T06:33:09;2.83;;;1.80;;
9661;SDS011;24982;52.344;12.990;2023-04-01T06:36:33;3.53;;;2.10;;
9661;SDS011;24982;52.344;12.990;2023-04-01T06:43:15;7.85;;;2.28;;
9661;SDS011;24982;52.344;12.990;2023-04-01T06:46:44;7.18;;;2.20;;
9661;SDS011;24982;52.344;12.990;2023-04-01T06:49:59;6.03;;;2.13;;
9661;SDS011;24982;52.344;12.990;2023-04-01T06:53:43;4.28;;;1.85;;
9661;SDS011;24982;52.344;12.990;2023-04-01T06:57:24;4.75;;;1.98;;
9661;SDS011;24982;52.344;12.990;2023-04-01T07:00:36;5.70;;;1.90;;
9661;SDS011;24982;52.344;12.990;2023-04-01T07:03:43;5.43;;;2.13;;
9661;SDS011;24982;52.344;12.990;2023-04-01T07:06:51;4.47;;;1.90;;
9661;SDS011;24982;52.344;12.990;2023-04-01T07:09:55;6.10;;;2.03;;
9661;SDS011;24982;52.344;12.990;2023-04-01T07:13:04;7.63;;;2.05;;
9661;SDS011;24982;52.344;12.990;2023-04-01T07:16:27;4.82;;;2.83;;
9661;SDS011;24982;52.344;12.990;2023-04-01T07:19:34;8.70;;;2.25;;
9661;SDS011;24982;52.344;12.990;2023-04-01T07:22:44;9.57;;;2.35;;
9661;SDS011;24982;52.344;12.990;2023-04-01T07:25:58;2.90;;;1.88;;
9661;SDS011;24982;52.344;12.990;2023-04-01T07:29:09;9.80;;;2.38;;
9661;SDS011;24982;52.344;12.990;2023-04-01T07:32:25;3.13;;;1.98;;
9661;SDS011;24982;52.344;12.990;2023-04-01T07:35:43;5.97;;;2.15;;
9661;SDS011;24982;52.344;12.990;2023-04-01T07:38:54;5.10;;;2.10;;
9661;SDS011;24982;52.344;12.990;2023-04-01T07:42:32;5.22;;;2.42;;
9661;SDS011;24982;52.344;12.990;2023-04-01T07:45:43;8.02;;;2.15;;
9661;SDS011;24982;52.344;12.990;2023-04-01T07:48:54;2.17;;;1.88;;
9661;SDS011;24982;52.344;12.990;2023-04-01T07:52:02;3.50;;;2.00;;
9661;SDS011;24982;52.344;12.990;2023-04-01T07:55:14;9.90;;;2.33;;
9661;SDS011;24982;52.344;12.990;2023-04-01T07:58:22;3.40;;;2.15;;
9661;SDS011;24982;52.344;12.990;2023-04-01T08:01:30;4.72;;;2.10;;
9661;SDS011;24982;52.344;12.990;2023-04-01T08:04:48;3.90;;;1.98;;
9661;SDS011;24982;52.344;12.990;2023-04-01T08:08:01;3.33;;;1.80;;
9661;SDS011;24982;52.344;12.990;2023-04-01T08:11:41;3.55;;;2.53;;
9661;SDS011;24982;52.344;12.990;2023-04-01T08:15:16;3.00;;;1.73;;
9661;SDS011;24982;52.344;12.990;2023-04-01T08:18:39;1.85;;;1.50;;
9661;SDS011;24982;52.344;12.990;2023-04-01T08:21:49;3.17;;;1.50;;
9661;SDS011;24982;52.344;12.990;2023-04-01T08:24:55;3.17;;;1.73;;
9661;SDS011;24982;52.344;12.990;2023-04-01T08:28:03;6.88;;;1.95;;
9661;SDS011;24982;52.344;12.990;2023-04-01T08:31:13;4.03;;;1.90;;
9661;SDS011;24982;52.344;12.990;2023-04-01T08:34:20;4.07;;;1.50;;
9661;SDS011;24982;52.344;12.990;2023-04-01T08:37:28;4.13;;;1.70;;
9661;SDS011;24982;52.344;12.990;2023-04-01T08:51:26;5.00;;;1.70;;
9661;SDS011;24982;52.344;12.990;2023-04-01T08:54:46;4.05;;;1.60;;
9661;SDS011;24982;52.344;12.990;2023-04-01T08:58:32;4.80;;;1.73;;
9661;SDS011;24982;52.344;12.990;2023-04-01T09:02:16;4.45;;;1.58;;
9661;SDS011;24982;52.344;12.990;2023-04-01T09:05:48;3.72;;;1.73;;
9661;SDS011;24982;52.344;12.990;2023-04-01T09:09:21;5.40;;;1.73;;
9661;SDS011;24982;52.344;12.990;2023-04-01T09:12:44;2.15;;;1.20;;
9661;SDS011;24982;52.344;12.990;2023-04-01T09:16:05;2.63;;;1.30;;
9661;SDS011;24982;52.344;12.990;2023-04-01T09:19:21;1.27;;;1.10;;
9661;SDS011;24982;52.344;12.990;2023-04-01T09:22:39;2.67;;;1.50;;
9661;SDS011;24982;52.344;12.990;2023-04-01T09:25:51;1.55;;;1.15;;
9661;SDS011;24982;52.344;12.990;2023-04-01T09:29:02;2.35;;;1.30;;
9661;SDS011;24982;52.344;12.990;2023-04-01T09:32:18;2.83;;;1.33;;
9661;SDS011;24982;52.344;12.990;2023-04-01T09:36:02;3.80;;;1.30;;
9661;SDS011;24982;52.344;12.990;2023-04-01T09:39:13;3.33;;;1.35;;
9661;SDS011;24982;52.344;12.990;2023-04-01T09:42:41;3.92;;;1.48;;
9661;SDS011;24982;52.344;12.990;2023-04-01T09:46:09;1.42;;;1.15;;
9661;SDS011;24982;52.344;12.990;2023-04-01T09:52:57;2.60;;;1.20;;
9661;SDS011;24982;52.344;12.990;2023-04-01T10:03:24;1.50;;;1.08;;
9661;SDS011;24982;52.344;12.990;2023-04-01T10:07:07;1.90;;;1.20;;
9661;SDS011;24982;52.344;12.990;2023-04-01T10:14:26;2.78;;;1.42;;
9661;SDS011;24982;52.344;12.990;2023-04-01T10:25:32;3.85;;;1.30;;
9661;SDS011;24982;52.344;12.990;2023-04-01T10:29:02;2.58;;;1.15;;
9661;SDS011;24982;52.344;12.990;2023-04-01T10:40:08;2.35;;;1.20;;
9661;SDS011;24982;52.344;12.990;2023-04-01T10:47:31;2.90;;;2.72;;
9661;SDS011;24982;52.344;12.990;2023-04-01T10:50:55;3.83;;;3.50;;
9661;SDS011;24982;52.344;12.990;2023-04-01T10:54:17;4.28;;;4.00;;
9661;SDS011;24982;52.344;12.990;2023-04-01T11:10:30;8.93;;;8.23;;
9661;SDS011;24982;52.344;12.990;2023-04-01T11:14:25;8.68;;;7.88;;
9661;SDS011;24982;52.344;12.990;2023-04-01T11:21:54;9.07;;;8.38;;
9661;SDS011;24982;52.344;12.990;2023-04-01T11:25:23;9.18;;;8.38;;
9661;SDS011;24982;52.344;12.990;2023-04-01T11:29:10;8.82;;;8.02;;
9661;SDS011;24982;52.344;12.990;2023-04-01T11:32:29;8.45;;;7.75;;
9661;SDS011;24982;52.344;12.990;2023-04-01T11:35:50;8.38;;;7.68;;
9661;SDS011;24982;52.344;12.990;2023-04-01T11:39:17;7.85;;;7.25;;
9661;SDS011;24982;52.344;12.990;2023-04-01T11:42:37;7.82;;;7.22;;
9661;SDS011;24982;52.344;12.990;2023-04-01T11:46:15;7.32;;;6.63;;
9661;SDS011;24982;52.344;12.990;2023-04-01T11:49:25;6.45;;;6.05;;
9661;SDS011;24982;52.344;12.990;2023-04-01T12:07:02;6.20;;;5.72;;
9661;SDS011;24982;52.344;12.990;2023-04-01T12:10:15;6.50;;;6.10;;
9661;SDS011;24982;52.344;12.990;2023-04-01T12:13:29;8.23;;;7.63;;
9661;SDS011;24982;52.344;12.990;2023-04-01T12:16:51;8.60;;;7.90;;
9661;SDS011;24982;52.344;12.990;2023-04-01T12:20:01;8.30;;;7.70;;
9661;SDS011;24982;52.344;12.990;2023-04-01T12:23:40;8.50;;;7.90;;
9661;SDS011;24982;52.344;12.990;2023-04-01T12:26:59;7.93;;;7.32;;
9661;SDS011;24982;52.344;12.990;2023-04-01T12:37:24;8.77;;;8.07;;
9661;SDS011;24982;52.344;12.990;2023-04-01T12:40:44;8.38;;;7.68;;
9661;SDS011;24982;52.344;12.990;2023-04-01T12:50:58;8.73;;;8.02;;
9661;SDS011;24982;52.344;12.990;2023-04-01T12:54:25;8.27;;;7.68;;
9661;SDS011;24982;52.344;12.990;2023-04-01T13:01:42;7.20;;;6.70;;
9661;SDS011;24982;52.344;12.990;2023-04-01T13:08:32;6.05;;;5.65;;
9661;SDS011;24982;52.344;12.990;2023-04-01T13:11:48;5.57;;;5.18;;
9661;SDS011;24982;52.344;12.990;2023-04-01T13:15:11;5.30;;;4.90;;
9661;SDS011;24982;52.344;12.990;2023-04-01T13:18:24;4.97;;;4.68;;
9661;SDS011;24982;52.344;12.990;2023-04-01T13:21:41;4.70;;;4.30;;
9661;SDS011;24982;52.344;12.990;2023-04-01T13:24:53;5.10;;;4.80;;
9661;SDS011;24982;52.344;12.990;2023-04-01T13:28:05;10.13;;;9.32;;
9661;SDS011;24982;52.344;12.990;2023-04-01T13:31:21;12.38;;;11.38;;
9661;SDS011;24982;52.344;12.990;2023-04-01T13:34:41;12.52;;;11.52;;
9661;SDS011;24982;52.344;12.990;2023-04-01T13:38:16;8.98;;;8.27;;
9661;SDS011;24982;52.344;12.990;2023-04-01T13:41:36;8.05;;;7.47;;
9661;SDS011;24982;52.344;12.990;2023-04-01T13:44:51;8.60;;;8.00;;
9661;SDS011;24982;52.344;12.990;2023-04-01T13:48:01;8.30;;;7.70;;
9661;SDS011;24982;52.344;12.990;2023-04-01T13:51:35;8.23;;;7.63;;
9661;SDS011;24982;52.344;12.990;2023-04-01T13:55:14;8.27;;;7.60;;
9661;SDS011;24982;52.344;12.990;2023-04-01T13:58:37;7.97;;;7.38;;
9661;SDS011;24982;52.344;12.990;2023-04-01T14:01:46;8.27;;;7.57;;
9661;SDS011;24982;52.344;12.990;2023-04-01T14:04:56;8.98;;;8.07;;
9661;SDS011;24982;52.344;12.990;2023-04-01T14:08:17;9.68;;;8.98;;
9661;SDS011;24982;52.344;12.990;2023-04-01T14:11:33;11.32;;;10.32;;
9661;SDS011;24982;52.344;12.990;2023-04-01T14:14:44;11.82;;;10.85;;
9661;SDS011;24982;52.344;12.990;2023-04-01T14:17:58;12.35;;;11.35;;
9661;SDS011;24982;52.344;12.990;2023-04-01T14:21:14;13.32;;;12.02;;
9661;SDS011;24982;52.344;12.990;2023-04-01T14:24:27;12.07;;;11.07;;
9661;SDS011;24982;52.344;12.990;2023-04-01T14:27:49;12.18;;;11.18;;
9661;SDS011;24982;52.344;12.990;2023-04-01T14:31:16;11.07;;;10.18;;
9661;SDS011;24982;52.344;12.990;2023-04-01T14:34:28;11.88;;;10.88;;
9661;SDS011;24982;52.344;12.990;2023-04-01T14:37:46;12.30;;;11.20;;
9661;SDS011;24982;52.344;12.990;2023-04-01T14:41:06;13.00;;;11.73;;
9661;SDS011;24982;52.344;12.990;2023-04-01T14:44:35;13.27;;;11.95;;
9661;SDS011;24982;52.344;12.990;2023-04-01T14:47:53;11.65;;;10.65;;
9661;SDS011;24982;52.344;12.990;2023-04-01T14:51:03;11.73;;;10.73;;
9661;SDS011;24982;52.344;12.990;2023-04-01T14:54:12;11.40;;;10.50;;
9661;SDS011;24982;52.344;12.990;2023-04-01T14:57:23;11.20;;;10.30;;
9661;SDS011;24982;52.344;12.990;2023-04-01T15:00:28;11.50;;;10.60;;
9661;SDS011;24982;52.344;12.990;2023-04-01T15:03:48;11.50;;;10.52;;
9661;SDS011;24982;52.344;12.990;2023-04-01T15:07:02;10.63;;;9.75;;
9661;SDS011;24982;52.344;12.990;2023-04-01T15:10:22;10.93;;;10.02;;
9661;SDS011;24982;52.344;12.990;2023-04-01T15:13:41;10.98;;;10.10;;
9661;SDS011;24982;52.344;12.990;2023-04-01T15:16:58;11.07;;;10.18;;
9661;SDS011;24982;52.344;12.990;2023-04-01T15:20:22;10.10;;;9.20;;
9661;SDS011;24982;52.344;12.990;2023-04-01T15:23:36;9.65;;;8.85;;
9661;SDS011;24982;52.344;12.990;2023-04-01T15:26:55;8.73;;;8.13;;
9661;SDS011;24982;52.344;12.990;2023-04-01T15:30:20;8.77;;;8.07;;
9661;SDS011;24982;52.344;12.990;2023-04-01T15:33:36;8.25;;;7.65;;
9661;SDS011;24982;52.344;12.990;2023-04-01T15:36:49;8.95;;;8.25;;
9661;SDS011;24982;52.344;12.990;2023-04-01T15:39:57;9.23;;;8.52;;
9661;SDS011;24982;52.344;12.990;2023-04-01T15:43:12;7.97;;;7.38;;
9661;SDS011;24982;52.344;12.990;2023-04-01T15:46:30;7.40;;;6.88;;
9661;SDS011;24982;52.344;12.990;2023-04-01T15:49:46;7.82;;;7.22;;
9661;SDS011;24982;52.344;12.990;2023-04-01T15:53:00;7.93;;;7.18;;
9661;SDS011;24982;52.344;12.990;2023-04-01T15:56:10;7.72;;;7.07;;
9661;SDS011;24982;52.344;12.990;2023-04-01T15:59:27;7.00;;;6.50;;
9661;SDS011;24982;52.344;12.990;2023-04-01T16:02:47;7.28;;;6.68;;
9661;SDS011;24982;52.344;12.990;2023-04-01T16:05:58;7.90;;;7.30;;
9661;SDS011;24982;52.344;12.990;2023-04-01T16:09:14;8.73;;;7.30;;
9661;SDS011;24982;52.344;12.990;2023-04-01T16:12:32;7.65;;;6.93;;
9661;SDS011;24982;52.344;12.990;2023-04-01T16:15:44;7.05;;;6.45;;
9661;SDS011;24982;52.344;12.990;2023-04-01T16:19:08;8.05;;;7.30;;
9661;SDS011;24982;52.344;12.990;2023-04-01T16:22:33;6.63;;;5.95;;
9661;SDS011;24982;52.344;12.990;2023-04-01T16:25:39;9.65;;;6.80;;
9661;SDS011;24982;52.344;12.990;2023-04-01T16:28:48;7.43;;;6.72;;
9661;SDS011;24982;52.344;12.990;2023-04-01T16:32:00;7.80;;;7.07;;
9661;SDS011;24982;52.344;12.990;2023-04-01T16:35:16;6.90;;;6.40;;
9661;SDS011;24982;52.344;12.990;2023-04-01T16:38:31;6.75;;;6.18;;
9661;SDS011;24982;52.344;12.990;2023-04-01T16:41:41;7.45;;;6.85;;
9661;SDS011;24982;52.344;12.990;2023-04-01T16:44:50;7.32;;;6.68;;
9661;SDS011;24982;52.344;12.990;2023-04-01T16:47:56;8.90;;;8.10;;
9661;SDS011;24982;52.344;12.990;2023-04-01T16:51:09;9.20;;;8.30;;
9661;SDS011;24982;52.344;12.990;2023-04-01T16:54:18;7.43;;;6.82;;
9661;SDS011;24982;52.344;12.990;2023-04-01T16:57:31;7.65;;;7.05;;
9661;SDS011;24982;52.344;12.990;2023-04-01T17:00:47;7.95;;;7.25;;
9661;SDS011;24982;52.344;12.990;2023-04-01T17:03:51;8.10;;;7.38;;
9661;SDS011;24982;52.344;12.990;2023-04-01T17:07:01;7.18;;;6.57;;
9661;SDS011;24982;52.344;12.990;2023-04-01T17:10:18;7.20;;;6.60;;
9661;SDS011;24982;52.344;12.990;2023-04-01T17:13:39;7.70;;;7.00;;
9661;SDS011;24982;52.344;12.990;2023-04-01T17:16:50;6.82;;;6.22;;
9661;SDS011;24982;52.344;12.990;2023-04-01T17:20:04;7.65;;;7.05;;
9661;SDS011;24982;52.344;12.990;2023-04-01T17:23:23;6.90;;;6.30;;
9661;SDS011;24982;52.344;12.990;2023-04-01T17:26:35;6.97;;;6.47;;
9661;SDS011;24982;52.344;12.990;2023-04-01T17:29:43;7.75;;;7.00;;
9661;SDS011;24982;52.344;12.990;2023-04-01T17:33:08;6.55;;;5.97;;
9661;SDS011;24982;52.344;12.990;2023-04-01T17:36:29;6.68;;;5.72;;
9661;SDS011;24982;52.344;12.990;2023-04-01T17:39:41;5.53;;;5.00;;
9661;SDS011;24982;52.344;12.990;2023-04-01T17:42:52;5.45;;;5.00;;
9661;SDS011;24982;52.344;12.990;2023-04-01T17:46:03;4.57;;;4.20;;
9661;SDS011;24982;52.344;12.990;2023-04-01T17:49:17;5.22;;;4.28;;
9661;SDS011;24982;52.344;12.990;2023-04-01T17:52:27;5.40;;;5.00;;
9661;SDS011;24982;52.344;12.990;2023-04-01T17:55:38;5.55;;;5.00;;
9661;SDS011;24982;52.344;12.990;2023-04-01T17:58:49;4.90;;;4.47;;
9661;SDS011;24982;52.344;12.990;2023-04-01T18:02:01;4.63;;;4.30;;
9661;SDS011;24982;52.344;12.990;2023-04-01T18:08:42;5.00;;;4.57;;
9661;SDS011;24982;52.344;12.990;2023-04-01T18:11:58;5.95;;;4.95;;
9661;SDS011;24982;52.344;12.990;2023-04-01T18:15:21;6.43;;;5.30;;
9661;SDS011;24982;52.344;12.990;2023-04-01T18:18:35;5.15;;;4.75;;
9661;SDS011;24982;52.344;12.990;2023-04-01T18:21:47;5.50;;;4.97;;
9661;SDS011;24982;52.344;12.990;2023-04-01T18:24:54;5.18;;;4.68;;
9661;SDS011;24982;52.344;12.990;2023-04-01T18:31:24;5.18;;;4.82;;
9661;SDS011;24982;52.344;12.990;2023-04-01T18:34:31;5.60;;;5.10;;
9661;SDS011;24982;52.344;12.990;2023-04-01T18:37:45;5.07;;;4.68;;
9661;SDS011;24982;52.344;12.990;2023-04-01T18:40:50;5.07;;;4.63;;
9661;SDS011;24982;52.344;12.990;2023-04-01T18:43:58;7.03;;;5.07;;
9661;SDS011;24982;52.344;12.990;2023-04-01T18:47:15;6.75;;;5.10;;
9661;SDS011;24982;52.344;12.990;2023-04-01T18:50:26;4.80;;;4.40;;
9661;SDS011;24982;52.344;12.990;2023-04-01T18:53:35;5.60;;;5.10;;
9661;SDS011;24982;52.344;12.990;2023-04-01T18:56:41;6.70;;;5.22;;
9661;SDS011;24982;52.344;12.990;2023-04-01T18:59:46;5.28;;;4.63;;
9661;SDS011;24982;52.344;12.990;2023-04-01T19:02:57;5.30;;;4.80;;
9661;SDS011;24982;52.344;12.990;2023-04-01T19:06:08;4.95;;;4.63;;
9661;SDS011;24982;52.344;12.990;2023-04-01T19:09:18;4.82;;;4.40;;
9661;SDS011;24982;52.344;12.990;2023-04-01T19:12:25;5.43;;;4.38;;
9661;SDS011;24982;52.344;12.990;2023-04-01T19:15:41;4.30;;;4.05;;
9661;SDS011;24982;52.344;12.990;2023-04-01T19:18:50;5.05;;;4.55;;
9661;SDS011;24982;52.344;12.990;2023-04-01T19:22:03;4.68;;;4.25;;
9661;SDS011;24982;52.344;12.990;2023-04-01T19:25:23;5.07;;;4.60;;
9661;SDS011;24982;52.344;12.990;2023-04-01T19:28:36;4.93;;;4.53;;
9661;SDS011;24982;52.344;12.990;2023-04-01T19:31:43;4.80;;;4.32;;
9661;SDS011;24982;52.344;12.990;2023-04-01T19:34:54;6.00;;;4.43;;
9661;SDS011;24982;52.344;12.990;2023-04-01T19:38:09;4.82;;;4.40;;
9661;SDS011;24982;52.344;12.990;2023-04-01T19:41:17;6.18;;;5.50;;
9661;SDS011;24982;52.344;12.990;2023-04-01T19:44:31;5.18;;;4.68;;
9661;SDS011;24982;52.344;12.990;2023-04-01T19:47:45;8.10;;;5.13;;
9661;SDS011;24982;52.344;12.990;2023-04-01T19:50:57;6.05;;;5.53;;
9661;SDS011;24982;52.344;12.990;2023-04-01T19:54:04;6.55;;;5.97;;
9661;SDS011;24982;52.344;12.990;2023-04-01T19:57:24;6.35;;;5.75;;
9661;SDS011;24982;52.344;12.990;2023-04-01T20:00:31;7.63;;;5.72;;
9661;SDS011;24982;52.344;12.990;2023-04-01T20:03:39;7.32;;;5.95;;
9661;SDS011;24982;52.344;12.990;2023-04-01T20:06:47;9.13;;;6.20;;
9661;SDS011;24982;52.344;12.990;2023-04-01T20:09:57;6.97;;;5.60;;
9661;SDS011;24982;52.344;12.990;2023-04-01T20:13:10;6.13;;;5.18;;
9661;SDS011;24982;52.344;12.990;2023-04-01T20:16:21;8.75;;;6.18;;
9661;SDS011;24982;52.344;12.990;2023-04-01T20:19:26;8.43;;;5.50;;
9661;SDS011;24982;52.344;12.990;2023-04-01T20:22:37;7.25;;;5.78;;
9661;SDS011;24982;52.344;12.990;2023-04-01T20:25:41;7.10;;;5.78;;
9661;SDS011;24982;52.344;12.990;2023-04-01T20:28:47;7.05;;;5.95;;
9661;SDS011;24982;52.344;12.990;2023-04-01T20:31:53;8.52;;;5.97;;
9661;SDS011;24982;52.344;12.990;2023-04-01T20:35:13;6.43;;;5.75;;
9661;SDS011;24982;52.344;12.990;2023-04-01T20:42:01;6.82;;;5.95;;
9661;SDS011;24982;52.344;12.990;2023-04-01T20:45:20;7.75;;;6.50;;
9661;SDS011;24982;52.344;12.990;2023-04-01T20:48:36;8.80;;;6.32;;
9661;SDS011;24982;52.344;12.990;2023-04-01T20:51:53;9.77;;;6.63;;
9661;SDS011;24982;52.344;12.990;2023-04-01T20:55:03;8.32;;;6.57;;
9661;SDS011;24982;52.344;12.990;2023-04-01T20:58:27;7.07;;;6.25;;
9661;SDS011;24982;52.344;12.990;2023-04-01T21:01:35;9.82;;;6.65;;
9661;SDS011;24982;52.344;12.990;2023-04-01T21:04:44;10.63;;;7.78;;
9661;SDS011;24982;52.344;12.990;2023-04-01T21:08:07;12.00;;;8.00;;
9661;SDS011;24982;52.344;12.990;2023-04-01T21:11:16;8.43;;;7.55;;
9661;SDS011;24982;52.344;12.990;2023-04-01T21:14:33;10.25;;;7.20;;